createdAt,value
2023-01-03T00:01:15.971Z,100.00
2023-01-03T00:03:44.595Z,100.00
2023-01-03T00:06:22.144Z,100.00
2023-01-03T00:08:50.859Z,100.00
2023-01-03T00:11:41.194Z,100.00
2023-01-03T00:14:08.165Z,100.00
2023-01-03T00:16:36.134Z,100.00
2023-01-03T00:19:07.602Z,100.00
2023-01-03T00:21:37.535Z,100.00
2023-01-03T00:24:07.096Z,100.00
2023-01-03T00:26:35.106Z,100.00
2023-01-03T00:29:03.708Z,100.00
2023-01-03T00:31:31.678Z,100.00
2023-01-03T00:33:59.609Z,100.00
2023-01-03T00:36:27.557Z,100.00
2023-01-03T00:38:56.896Z,100.00
2023-01-03T00:41:24.862Z,100.00
2023-01-03T00:43:52.918Z,100.00
2023-01-03T00:46:22.168Z,100.00
2023-01-03T00:48:50.788Z,100.00
2023-01-03T00:51:20.806Z,100.00
2023-01-03T00:53:50.265Z,100.00
2023-01-03T00:56:22.320Z,100.00
2023-01-03T00:58:50.720Z,100.00
2023-01-03T01:01:21.087Z,100.00
2023-01-03T01:03:51.753Z,100.00
2023-01-03T01:06:21.725Z,100.00
2023-01-03T01:08:50.953Z,100.00
2023-01-03T01:11:20.750Z,100.00
2023-01-03T01:13:49.600Z,100.00
2023-01-03T01:16:20.309Z,100.00
2023-01-03T01:18:50.176Z,100.00
2023-01-03T01:21:21.043Z,99.98
2023-01-03T01:23:49.577Z,99.68
2023-01-03T01:26:21.731Z,100.00
2023-01-03T01:28:50.271Z,100.00
2023-01-03T01:31:20.408Z,100.00
2023-01-03T01:33:48.371Z,100.00
2023-01-03T01:36:18.523Z,100.00
2023-01-03T01:38:47.369Z,100.00
2023-01-03T01:41:37.924Z,100.00
2023-01-03T01:44:26.300Z,99.54
2023-01-03T01:46:54.270Z,98.73
2023-01-03T01:49:26.811Z,97.90
2023-01-03T01:51:54.801Z,98.48
2023-01-03T01:54:22.842Z,98.14
2023-01-03T01:56:54.342Z,97.97
2023-01-03T01:59:23.761Z,97.73
2023-01-03T02:01:52.782Z,98.00
2023-01-03T02:04:24.813Z,99.06
2023-01-03T02:06:53.736Z,99.86
2023-01-03T02:09:21.667Z,99.92
2023-01-03T02:12:15.396Z,99.87
2023-01-03T02:15:00.024Z,98.23
2023-01-03T02:17:40.633Z,96.71
2023-01-03T02:20:22.141Z,96.34
2023-01-03T02:23:28.115Z,96.13
2023-01-03T02:26:34.166Z,96.20
2023-01-03T02:29:17.524Z,97.20
2023-01-03T02:31:53.794Z,98.26
2023-01-03T02:34:31.082Z,100.00
2023-01-03T02:37:07.823Z,100.00
2023-01-03T02:39:42.349Z,100.00
2023-01-03T02:42:32.843Z,100.00
2023-01-03T02:45:09.071Z,100.00
2023-01-03T02:47:44.683Z,100.00
2023-01-03T02:50:14.789Z,100.00
2023-01-03T02:52:44.352Z,100.00
2023-01-03T02:55:17.608Z,100.00
2023-01-03T02:57:51.057Z,100.00
2023-01-03T03:00:23.111Z,100.00
2023-01-03T03:02:58.417Z,100.00
2023-01-03T03:05:29.419Z,100.00
2023-01-03T03:07:57.411Z,100.00
2023-01-03T03:10:43.020Z,100.00
2023-01-03T03:13:17.369Z,100.00
2023-01-03T03:15:48.415Z,100.00
2023-01-03T03:18:21.041Z,100.00
2023-01-03T03:21:06.279Z,100.00
2023-01-03T03:23:56.257Z,100.00
2023-01-03T03:26:27.982Z,100.00
2023-01-03T03:29:06.123Z,100.00
2023-01-03T03:31:40.016Z,100.00
2023-01-03T03:34:13.459Z,100.00
2023-01-03T03:36:49.205Z,100.00
2023-01-03T03:39:36.183Z,100.00
2023-01-03T03:42:33.382Z,100.00
2023-01-03T03:45:04.634Z,100.00
2023-01-03T03:47:40.487Z,100.00
2023-01-03T03:50:15.906Z,100.00
2023-01-03T03:52:47.542Z,100.00
2023-01-03T03:55:19.160Z,100.00
2023-01-03T03:57:51.587Z,100.00
2023-01-03T04:00:24.039Z,100.00
2023-01-03T04:02:53.941Z,100.00
2023-01-03T04:05:27.494Z,100.00
2023-01-03T04:07:55.780Z,100.00
2023-01-03T04:10:25.255Z,100.00
2023-01-03T04:12:53.387Z,100.00
2023-01-03T04:15:21.697Z,100.00
2023-01-03T04:17:49.737Z,100.00
2023-01-03T04:20:18.974Z,100.00
2023-01-03T04:22:48.330Z,100.00
2023-01-03T04:25:16.344Z,100.00
2023-01-03T04:27:44.304Z,100.00
2023-01-03T04:30:13.328Z,100.00
2023-01-03T04:32:41.401Z,100.00
2023-01-03T04:35:09.950Z,100.00
2023-01-03T04:37:38.229Z,100.00
2023-01-03T04:40:08.627Z,100.00
2023-01-03T04:42:54.275Z,100.00
2023-01-03T04:45:22.304Z,100.00
2023-01-03T04:47:50.270Z,100.00
2023-01-03T04:50:18.332Z,100.00
2023-01-03T04:52:46.252Z,100.00
2023-01-03T04:55:15.607Z,100.00
2023-01-03T04:57:43.517Z,100.00
2023-01-03T05:00:12.789Z,100.00
2023-01-03T05:02:41.291Z,100.00
2023-01-03T05:05:09.637Z,100.00
2023-01-03T05:07:37.758Z,100.00
2023-01-03T05:10:06.310Z,100.00
2023-01-03T05:12:35.645Z,100.00
2023-01-03T05:15:03.581Z,100.00
2023-01-03T05:17:31.521Z,100.00
2023-01-03T05:20:16.732Z,100.00
2023-01-03T05:23:02.258Z,100.00
2023-01-03T05:25:47.729Z,100.00
2023-01-03T05:28:17.871Z,100.00
2023-01-03T05:30:45.921Z,100.00
2023-01-03T05:33:14.132Z,100.00
2023-01-03T05:35:42.094Z,100.00
2023-01-03T05:38:10.002Z,100.00
2023-01-03T05:40:41.437Z,100.00
2023-01-03T05:43:09.750Z,100.00
2023-01-03T05:45:39.896Z,100.00
2023-01-03T05:48:09.050Z,100.00
2023-01-03T05:50:37.181Z,100.00
2023-01-03T05:53:05.165Z,100.00
2023-01-03T05:55:33.095Z,100.00
2023-01-03T05:58:01.067Z,100.00
2023-01-03T06:00:29.598Z,100.00
2023-01-03T06:02:58.975Z,100.00
2023-01-03T06:05:27.335Z,100.00
2023-01-03T06:07:55.258Z,100.00
2023-01-03T06:10:23.192Z,100.00
2023-01-03T06:12:51.219Z,100.00
2023-01-03T06:15:20.394Z,100.00
2023-01-03T06:17:58.953Z,100.00
2023-01-03T06:20:29.348Z,100.00
2023-01-03T06:22:57.361Z,100.00
2023-01-03T06:25:25.950Z,100.00
2023-01-03T06:27:53.967Z,100.00
2023-01-03T06:30:22.003Z,100.00
2023-01-03T06:32:49.933Z,100.00
2023-01-03T06:35:17.985Z,100.00
2023-01-03T06:37:47.300Z,100.00
2023-01-03T06:40:15.241Z,100.00
2023-01-03T06:42:45.848Z,100.00
2023-01-03T06:45:32.961Z,100.00
2023-01-03T06:48:22.675Z,100.00
2023-01-03T06:51:08.025Z,100.00
2023-01-03T06:53:38.968Z,100.00
2023-01-03T06:56:08.369Z,100.00
2023-01-03T06:58:37.114Z,100.00
2023-01-03T07:01:06.148Z,100.00
2023-01-03T07:03:34.695Z,100.00
2023-01-03T07:06:02.628Z,100.00
2023-01-03T07:08:30.627Z,100.00
2023-01-03T07:10:59.977Z,100.00
2023-01-03T07:13:45.051Z,100.00
2023-01-03T07:16:16.008Z,100.00
2023-01-03T07:18:49.356Z,100.00
2023-01-03T07:21:23.123Z,100.00
2023-01-03T07:23:51.387Z,100.00
2023-01-03T07:26:20.900Z,100.00
2023-01-03T07:28:48.992Z,100.00
2023-01-03T07:31:17.022Z,100.00
2023-01-03T07:33:45.350Z,100.00
2023-01-03T07:36:15.433Z,100.00
2023-01-03T07:38:45.433Z,100.00
2023-01-03T07:41:14.884Z,100.00
2023-01-03T07:43:46.321Z,100.00
2023-01-03T07:46:17.467Z,100.00
2023-01-03T07:48:46.756Z,100.00
2023-01-03T07:51:16.409Z,100.00
2023-01-03T07:53:45.105Z,100.00
2023-01-03T07:56:15.240Z,100.00
2023-01-03T07:58:45.594Z,100.00
2023-01-03T08:01:15.876Z,100.00
2023-01-03T08:03:44.511Z,100.00
2023-01-03T08:06:14.844Z,100.00
2023-01-03T08:08:43.602Z,100.00
2023-01-03T08:11:30.772Z,100.00
2023-01-03T08:14:00.466Z,100.00
2023-01-03T08:16:28.564Z,100.00
2023-01-03T08:18:56.560Z,98.16
2023-01-03T08:21:24.479Z,94.54
2023-01-03T08:23:52.385Z,94.72
2023-01-03T08:26:21.019Z,96.99
2023-01-03T08:28:48.984Z,96.83
2023-01-03T08:31:20.937Z,95.19
2023-01-03T08:33:53.612Z,92.20
2023-01-03T08:36:24.600Z,90.03
2023-01-03T08:38:57.927Z,91.95
2023-01-03T08:41:30.584Z,89.91
2023-01-03T08:44:00.032Z,89.86
2023-01-03T08:46:31.191Z,89.11
2023-01-03T08:48:59.134Z,87.36
2023-01-03T08:51:28.831Z,85.86
2023-01-03T08:53:56.847Z,88.58
2023-01-03T08:56:24.817Z,89.04
2023-01-03T08:58:53.044Z,85.56
2023-01-03T09:01:21.835Z,83.93
2023-01-03T09:03:51.415Z,84.88
2023-01-03T09:06:19.995Z,86.40
2023-01-03T09:08:48.039Z,83.55
2023-01-03T09:11:16.166Z,85.26
2023-01-03T09:13:44.093Z,86.10
2023-01-03T09:16:13.187Z,83.06
2023-01-03T09:18:42.281Z,84.07
2023-01-03T09:21:11.611Z,82.60
2023-01-03T09:23:39.860Z,81.01
2023-01-03T09:26:08.641Z,80.20
2023-01-03T09:28:36.642Z,80.95
2023-01-03T09:31:06.242Z,80.47
2023-01-03T09:33:34.256Z,79.77
2023-01-03T09:36:02.183Z,80.12
2023-01-03T09:38:31.505Z,79.69
2023-01-03T09:41:02.169Z,78.78
2023-01-03T09:43:41.003Z,78.99
2023-01-03T09:46:16.870Z,82.64
2023-01-03T09:48:44.912Z,82.17
2023-01-03T09:51:37.282Z,82.49
2023-01-03T09:54:28.751Z,83.48
2023-01-03T09:57:14.331Z,81.48
2023-01-03T09:59:59.881Z,82.53
2023-01-03T10:03:00.195Z,79.16
2023-01-03T10:05:43.918Z,82.71
2023-01-03T10:08:33.056Z,83.38
2023-01-03T10:11:07.769Z,82.27
2023-01-03T10:13:48.075Z,79.54
2023-01-03T10:16:25.901Z,78.75
2023-01-03T10:19:21.747Z,78.00
2023-01-03T10:21:58.032Z,78.68
2023-01-03T10:24:27.449Z,75.91
2023-01-03T10:27:01.638Z,74.98
2023-01-03T10:29:29.565Z,75.45
2023-01-03T10:32:11.513Z,77.53
2023-01-03T10:34:39.847Z,75.92
2023-01-03T10:37:18.483Z,76.71
2023-01-03T10:39:46.569Z,77.93
2023-01-03T10:42:19.772Z,77.76
2023-01-03T10:45:03.372Z,73.96
2023-01-03T10:47:31.412Z,76.86
2023-01-03T10:50:00.614Z,76.30
2023-01-03T10:52:33.272Z,74.47
2023-01-03T10:55:03.515Z,75.65
2023-01-03T10:57:43.895Z,75.02
2023-01-03T11:00:30.793Z,75.36
2023-01-03T11:03:11.798Z,75.95
2023-01-03T11:05:41.324Z,75.91
2023-01-03T11:08:18.198Z,74.67
2023-01-03T11:10:59.873Z,71.83
2023-01-03T11:13:35.809Z,73.46
2023-01-03T11:16:13.558Z,71.12
2023-01-03T11:18:43.091Z,68.50
2023-01-03T11:21:23.356Z,72.03
2023-01-03T11:24:04.356Z,72.47
2023-01-03T11:26:47.963Z,73.23
2023-01-03T11:29:48.379Z,70.98
2023-01-03T11:32:30.019Z,69.86
2023-01-03T11:35:23.419Z,72.21
2023-01-03T11:37:59.445Z,72.67
2023-01-03T11:40:47.981Z,72.87
2023-01-03T11:43:32.647Z,72.83
2023-01-03T11:46:23.614Z,74.70
2023-01-03T11:49:22.096Z,75.54
2023-01-03T11:52:04.379Z,75.04
2023-01-03T11:54:53.325Z,74.56
2023-01-03T11:57:32.809Z,76.39
2023-01-03T12:00:12.671Z,76.70
2023-01-03T12:03:01.139Z,76.56
2023-01-03T12:05:50.195Z,77.71
2023-01-03T12:08:41.452Z,77.06
2023-01-03T12:11:18.325Z,75.88
2023-01-03T12:13:53.853Z,77.26
2023-01-03T12:16:26.371Z,78.17
2023-01-03T12:19:00.494Z,78.60
2023-01-03T12:21:36.384Z,79.40
2023-01-03T12:24:11.909Z,80.82
2023-01-03T12:26:42.597Z,80.57
2023-01-03T12:29:19.440Z,79.22
2023-01-03T12:31:50.645Z,79.76
2023-01-03T12:34:26.908Z,79.14
2023-01-03T12:37:08.520Z,78.57
2023-01-03T12:39:46.422Z,77.33
2023-01-03T12:42:23.023Z,78.37
2023-01-03T12:45:00.027Z,78.60
2023-01-03T12:47:32.112Z,78.70
2023-01-03T12:50:04.467Z,79.27
2023-01-03T12:52:35.863Z,78.94
2023-01-03T12:55:13.401Z,80.84
2023-01-03T12:58:03.900Z,80.82
2023-01-03T13:00:58.591Z,81.12
2023-01-03T13:03:28.720Z,81.46
2023-01-03T13:05:59.766Z,81.06
2023-01-03T13:08:37.180Z,80.16
2023-01-03T13:11:09.649Z,80.23
2023-01-03T13:13:37.617Z,80.96
2023-01-03T13:16:31.559Z,82.06
2023-01-03T13:20:03.187Z,81.18
2023-01-03T13:22:49.196Z,81.83
2023-01-03T13:25:40.289Z,83.79
2023-01-03T13:28:33.478Z,83.99
2023-01-03T13:31:47.865Z,83.69
2023-01-03T13:34:44.858Z,84.48
2023-01-03T13:37:22.825Z,85.17
2023-01-03T13:40:59.851Z,85.49
2023-01-03T13:43:23.185Z,86.27
2023-01-03T13:45:53.915Z,87.24
2023-01-03T13:48:34.300Z,86.89
2023-01-03T13:51:48.293Z,86.91
2023-01-03T13:54:54.964Z,86.47
2023-01-03T13:57:38.433Z,87.02
2023-01-03T14:00:18.915Z,87.25
2023-01-03T14:03:20.037Z,87.20
2023-01-03T14:06:05.080Z,88.16
2023-01-03T14:09:14.256Z,88.84
2023-01-03T14:12:07.210Z,88.42
2023-01-03T14:14:37.290Z,88.78
2023-01-03T14:17:14.872Z,88.65
2023-01-03T14:19:50.957Z,90.01
2023-01-03T14:22:31.730Z,91.23
2023-01-03T14:25:00.585Z,92.16
2023-01-03T14:27:37.159Z,92.25
2023-01-03T14:30:06.512Z,93.56
2023-01-03T14:32:37.418Z,92.84
2023-01-03T14:35:05.931Z,92.03
2023-01-03T14:37:35.161Z,95.33
2023-01-03T14:40:06.251Z,96.06
2023-01-03T14:42:34.304Z,97.61
2023-01-03T14:45:04.855Z,96.92
2023-01-03T14:47:38.472Z,95.82
2023-01-03T14:50:08.871Z,96.13
2023-01-03T14:52:40.954Z,95.63
2023-01-03T14:55:15.739Z,97.74
2023-01-03T14:57:45.633Z,100.00
2023-01-03T15:00:19.060Z,98.47
2023-01-03T15:02:49.880Z,98.16
2023-01-03T15:05:27.603Z,100.00
2023-01-03T15:07:56.191Z,100.00
2023-01-03T15:10:32.302Z,100.00
2023-01-03T15:13:04.788Z,100.00
2023-01-03T15:15:37.025Z,100.00
2023-01-03T15:18:09.985Z,100.00
2023-01-03T15:20:39.933Z,100.00
2023-01-03T15:23:08.755Z,100.00
2023-01-03T15:25:40.047Z,100.00
2023-01-03T15:28:24.338Z,100.00
2023-01-03T15:30:55.475Z,100.00
2023-01-03T15:33:33.296Z,100.00
2023-01-03T15:36:06.493Z,99.54
2023-01-03T15:38:37.278Z,98.97
2023-01-03T15:41:16.704Z,98.77
2023-01-03T15:43:43.711Z,98.00
2023-01-03T15:46:15.769Z,98.16
2023-01-03T15:48:53.026Z,97.02
2023-01-03T15:51:20.988Z,96.14
2023-01-03T15:53:49.011Z,95.82
2023-01-03T15:56:20.091Z,95.81
2023-01-03T15:58:49.534Z,95.36
2023-01-03T16:01:18.787Z,95.37
2023-01-03T16:03:49.913Z,95.41
2023-01-03T16:06:18.155Z,95.64
2023-01-03T16:08:46.380Z,97.15
2023-01-03T16:11:19.831Z,96.57
2023-01-03T16:13:53.279Z,96.81
2023-01-03T16:16:26.455Z,96.19
2023-01-03T16:18:55.994Z,96.70
2023-01-03T16:21:24.731Z,96.60
2023-01-03T16:23:52.747Z,95.96
2023-01-03T16:26:20.816Z,95.75
2023-01-03T16:28:48.813Z,100.00
2023-01-03T16:31:19.486Z,98.73
2023-01-03T16:33:49.850Z,98.87
2023-01-03T16:36:31.886Z,98.44
2023-01-03T16:39:00.786Z,97.25
2023-01-03T16:41:28.818Z,97.58
2023-01-03T16:43:56.773Z,97.67
2023-01-03T16:46:26.946Z,97.10
2023-01-03T16:48:58.024Z,97.71
2023-01-03T16:51:30.817Z,96.62
2023-01-03T16:54:00.406Z,96.50
2023-01-03T16:56:28.392Z,96.43
2023-01-03T16:58:56.340Z,96.31
2023-01-03T17:01:24.422Z,96.13
2023-01-03T17:03:52.602Z,96.18
2023-01-03T17:06:37.654Z,95.66
2023-01-03T17:09:13.005Z,95.65
2023-01-03T17:11:41.373Z,94.96
2023-01-03T17:14:17.601Z,95.04
2023-01-03T17:16:46.337Z,95.96
2023-01-03T17:20:01.573Z,95.86
2023-01-03T17:22:14.977Z,95.58
2023-01-03T17:24:43.433Z,94.67
2023-01-03T17:27:18.245Z,94.96
2023-01-03T17:29:47.369Z,94.01
2023-01-03T17:32:18.815Z,94.19
2023-01-03T17:34:47.034Z,94.07
2023-01-03T17:37:19.597Z,93.66
2023-01-03T17:39:50.129Z,93.72
2023-01-03T17:42:18.966Z,93.45
2023-01-03T17:45:02.519Z,93.12
2023-01-03T17:47:48.074Z,93.82
2023-01-03T17:50:16.207Z,94.69
2023-01-03T17:52:48.985Z,95.04
2023-01-03T17:55:24.403Z,95.96
2023-01-03T17:57:52.815Z,95.99
2023-01-03T18:00:23.253Z,95.63
2023-01-03T18:02:51.720Z,95.46
2023-01-03T18:05:26.964Z,96.07
2023-01-03T18:07:58.570Z,95.63
2023-01-03T18:10:32.818Z,95.64
2023-01-03T18:13:01.045Z,95.32
2023-01-03T18:15:29.201Z,94.52
2023-01-03T18:17:57.157Z,95.92
2023-01-03T18:20:26.593Z,95.38
2023-01-03T18:22:54.759Z,94.62
2023-01-03T18:25:26.862Z,95.13
2023-01-03T18:27:58.783Z,95.17
2023-01-03T18:30:26.775Z,96.03
2023-01-03T18:32:54.696Z,95.56
2023-01-03T18:35:30.983Z,96.44
2023-01-03T18:38:02.288Z,96.37
2023-01-03T18:40:31.899Z,96.73
2023-01-03T18:43:10.456Z,96.66
2023-01-03T18:45:39.702Z,96.33
2023-01-03T18:48:13.399Z,96.15
2023-01-03T18:50:41.764Z,95.23
2023-01-03T18:53:16.980Z,94.86
2023-01-03T18:55:47.852Z,94.81
2023-01-03T18:58:26.809Z,95.35
2023-01-03T19:00:54.766Z,95.05
2023-01-03T19:03:25.543Z,95.66
2023-01-03T19:05:55.453Z,95.51
2023-01-03T19:08:25.911Z,95.76
2023-01-03T19:10:55.518Z,96.38
2023-01-03T19:13:27.560Z,96.33
2023-01-03T19:15:56.348Z,96.43
2023-01-03T19:18:24.488Z,97.33
2023-01-03T19:20:52.477Z,98.51
2023-01-03T19:23:24.856Z,99.66
2023-01-03T19:25:53.046Z,100.00
2023-01-03T19:28:24.931Z,100.00
2023-01-03T19:30:53.638Z,100.00
2023-01-03T19:33:21.832Z,100.00
2023-01-03T19:35:50.344Z,100.00
2023-01-03T19:38:18.367Z,100.00
2023-01-03T19:40:46.602Z,100.00
2023-01-03T19:43:21.978Z,100.00
2023-01-03T19:45:51.300Z,100.00
2023-01-03T19:48:21.504Z,100.00
2023-01-03T19:50:50.607Z,100.00
2023-01-03T19:53:18.914Z,100.00
2023-01-03T19:55:48.825Z,100.00
2023-01-03T19:58:20.415Z,99.93
2023-01-03T20:00:50.026Z,99.67
2023-01-03T20:03:26.875Z,99.30
2023-01-03T20:05:55.191Z,99.51
2023-01-03T20:08:23.264Z,100.00
2023-01-03T20:10:52.802Z,99.97
2023-01-03T20:13:24.327Z,100.00
2023-01-03T20:15:54.691Z,100.00
2023-01-03T20:18:27.263Z,100.00
2023-01-03T20:20:57.919Z,100.00
2023-01-03T20:23:27.024Z,100.00
2023-01-03T20:25:55.001Z,100.00
2023-01-03T20:28:29.408Z,100.00
2023-01-03T20:30:58.478Z,100.00
2023-01-03T20:33:29.156Z,100.00
2023-01-03T20:36:16.280Z,100.00
2023-01-03T20:38:50.205Z,100.00
2023-01-03T20:41:19.284Z,100.00
2023-01-03T20:43:50.306Z,100.00
2023-01-03T20:46:20.838Z,100.00
2023-01-03T20:48:56.903Z,100.00
2023-01-03T20:51:25.619Z,100.00
2023-01-03T20:53:54.954Z,100.00
2023-01-03T20:56:23.940Z,100.00
2023-01-03T20:58:51.879Z,100.00
2023-01-03T21:01:19.944Z,100.00
2023-01-03T21:03:48.138Z,100.00
2023-01-03T21:06:20.292Z,100.00
2023-01-03T21:08:57.857Z,100.00
2023-01-03T21:11:28.511Z,100.00
2023-01-03T21:13:57.314Z,100.00
2023-01-03T21:16:36.737Z,100.00
2023-01-03T21:19:13.012Z,100.00
2023-01-03T21:21:43.386Z,100.00
2023-01-03T21:24:12.338Z,100.00
2023-01-03T21:26:40.691Z,100.00
2023-01-03T21:29:08.702Z,100.00
2023-01-03T21:31:37.852Z,100.00
2023-01-03T21:34:08.019Z,100.00
2023-01-03T21:36:37.447Z,100.00
2023-01-03T21:39:06.817Z,100.00
2023-01-03T21:41:56.628Z,100.00
2023-01-03T21:44:24.756Z,100.00
2023-01-03T21:46:52.760Z,100.00
2023-01-03T21:49:21.180Z,100.00
2023-01-03T21:51:49.133Z,100.00
2023-01-03T21:54:18.447Z,100.00
2023-01-03T21:56:47.000Z,100.00
2023-01-03T21:59:15.724Z,100.00
2023-01-03T22:02:02.337Z,100.00
2023-01-03T22:04:30.797Z,100.00
2023-01-03T22:07:01.179Z,100.00
2023-01-03T22:09:50.101Z,100.00
2023-01-03T22:12:19.013Z,100.00
2023-01-03T22:14:47.215Z,100.00
2023-01-03T22:17:15.351Z,100.00
2023-01-03T22:19:43.490Z,100.00
2023-01-03T22:22:11.501Z,100.00
2023-01-03T22:24:40.806Z,100.00
2023-01-03T22:27:08.747Z,100.00
2023-01-03T22:29:36.767Z,99.82
2023-01-03T22:32:05.078Z,99.35
2023-01-03T22:34:33.034Z,98.98
2023-01-03T22:37:00.938Z,98.37
2023-01-03T22:39:28.869Z,99.17
2023-01-03T22:41:58.971Z,100.00
2023-01-03T22:44:26.969Z,100.00
2023-01-03T22:46:54.891Z,100.00
2023-01-03T22:49:22.847Z,100.00
2023-01-03T22:51:50.948Z,100.00
2023-01-03T22:54:18.854Z,100.00
2023-01-03T22:56:46.934Z,100.00
2023-01-03T22:59:16.534Z,100.00
2023-01-03T23:01:44.585Z,100.00
2023-01-03T23:04:13.038Z,100.00
2023-01-03T23:06:41.052Z,100.00
2023-01-03T23:09:09.048Z,100.00
2023-01-03T23:11:54.293Z,100.00
2023-01-03T23:14:24.977Z,100.00
2023-01-03T23:16:55.876Z,100.00
2023-01-03T23:19:26.045Z,100.00
2023-01-03T23:21:54.125Z,100.00
2023-01-03T23:24:25.290Z,100.00
2023-01-03T23:26:54.009Z,100.00
2023-01-03T23:29:23.419Z,100.00
2023-01-03T23:31:52.819Z,100.00
2023-01-03T23:34:20.939Z,100.00
2023-01-03T23:36:49.227Z,100.00
2023-01-03T23:39:19.402Z,100.00
2023-01-03T23:41:47.803Z,99.93
2023-01-03T23:44:15.881Z,99.86
2023-01-03T23:46:45.210Z,99.02
2023-01-03T23:49:13.531Z,99.69
2023-01-03T23:51:41.502Z,100.00
2023-01-03T23:54:09.478Z,100.00
2023-01-03T23:56:37.715Z,100.00
2023-01-03T23:59:06.112Z,100.00
